Time;durP1;ratioP1;P1;durP2;ratioP2;P2;SDS_P1;SDS_P2;PMS_P1;PMS_P2;Temp;Humidity;BMP_temperature;BMP_pressure;BME280_temperature;BME280_humidity;BME280_pressure;Samples;Min_cycle;Max_cycle;Signal;HPM_P1;HPM_P2
2022/03/06 00:01:58;;;;;;;18.88;14.75;;;0.80;99.90;;;;;;5138534;27;20047;-79
2022/03/06 00:04:24;;;;;;;19.00;14.43;;;0.80;99.90;;;;;;5156732;27;20046;-79
2022/03/06 00:06:50;;;;;;;18.55;14.48;;;0.80;99.90;;;;;;5156961;27;20045;-79
2022/03/06 00:09:15;;;;;;;16.95;14.95;;;0.90;99.90;;;;;;5138332;27;20042;-78
2022/03/06 00:11:41;;;;;;;18.70;14.75;;;0.90;99.90;;;;;;5138489;27;20031;-79
2022/03/06 00:14:07;;;;;;;17.40;13.77;;;0.90;99.90;;;;;;5157053;27;20042;-79
2022/03/06 00:16:32;;;;;;;17.15;13.43;;;0.90;99.90;;;;;;5156551;27;20052;-79
2022/03/06 00:18:58;;;;;;;17.27;13.85;;;1.00;99.90;;;;;;5156360;27;20049;-79
2022/03/06 00:21:24;;;;;;;14.25;12.68;;;1.00;99.90;;;;;;5156396;27;20134;-79
2022/03/06 00:23:49;;;;;;;15.88;13.00;;;1.10;99.90;;;;;;5138579;27;20042;-79
2022/03/06 00:26:15;;;;;;;15.55;13.15;;;1.10;99.90;;;;;;5156365;27;20474;-79
2022/03/06 00:28:40;;;;;;;15.10;12.93;;;1.10;99.90;;;;;;5156812;27;20087;-79
2022/03/06 00:31:06;;;;;;;15.32;12.80;;;1.20;99.90;;;;;;5138248;27;20092;-79
2022/03/06 00:33:32;;;;;;;15.48;13.05;;;1.20;99.90;;;;;;5155899;27;20398;-80
2022/03/06 00:35:58;;;;;;;14.80;12.73;;;1.20;99.90;;;;;;5156736;27;20039;-79
2022/03/06 00:38:23;;;;;;;15.77;12.30;;;1.30;99.90;;;;;;5137773;27;20048;-80
2022/03/06 00:40:49;;;;;;;13.63;11.90;;;1.30;99.90;;;;;;5156596;27;20130;-79
2022/03/06 00:43:15;;;;;;;16.20;12.60;;;1.30;99.90;;;;;;5156137;27;20035;-80
2022/03/06 00:45:42;;;;;;;16.15;12.30;;;1.40;99.90;;;;;;5137903;27;20474;-80
2022/03/06 00:48:07;;;;;;;15.23;11.43;;;1.40;99.90;;;;;;5120530;27;20049;-79
2022/03/06 00:50:35;;;;;;;13.82;11.90;;;1.50;99.90;;;;;;5137562;27;20043;-80
2022/03/06 00:53:01;;;;;;;14.55;12.13;;;1.50;99.90;;;;;;5120761;27;20045;-80
2022/03/06 00:55:27;;;;;;;14.38;11.88;;;1.60;99.90;;;;;;5155942;27;20039;-78
2022/03/06 00:57:52;;;;;;;11.90;10.60;;;1.60;99.90;;;;;;5137715;27;20051;-78
2022/03/06 01:00:18;;;;;;;14.25;11.82;;;1.60;99.90;;;;;;5155665;27;20070;-78
2022/03/06 01:02:44;;;;;;;13.00;10.82;;;1.60;99.90;;;;;;5156084;27;20043;-79
2022/03/06 01:05:10;;;;;;;13.02;11.40;;;1.60;99.90;;;;;;5156145;27;20414;-79
2022/03/06 01:07:35;;;;;;;14.38;11.13;;;1.70;99.90;;;;;;5155612;27;20043;-78
2022/03/06 01:10:01;;;;;;;13.68;10.90;;;1.70;99.90;;;;;;5137623;27;20038;-79
2022/03/06 01:12:27;;;;;;;11.88;10.55;;;1.70;99.90;;;;;;5136983;27;20091;-79
2022/03/06 01:14:52;;;;;;;12.73;10.77;;;1.70;99.90;;;;;;5155902;27;20095;-75
2022/03/06 01:17:18;;;;;;;12.27;10.50;;;1.70;99.90;;;;;;5138038;27;20047;-76
2022/03/06 01:19:44;;;;;;;12.55;10.73;;;1.80;99.90;;;;;;5157348;27;20047;-77
2022/03/06 01:22:09;;;;;;;15.07;10.30;;;1.80;99.90;;;;;;5139003;27;20368;-76
2022/03/06 01:24:35;;;;;;;13.45;10.25;;;1.90;99.90;;;;;;5120228;27;20051;-79
2022/03/06 01:27:01;;;;;;;12.25;10.15;;;1.80;99.90;;;;;;5155489;27;20043;-78
2022/03/06 01:29:26;;;;;;;12.20;10.73;;;1.80;99.90;;;;;;5155087;27;20129;-79
2022/03/06 01:31:52;;;;;;;12.38;10.15;;;1.90;99.90;;;;;;5154344;27;20097;-79
2022/03/06 01:34:18;;;;;;;12.98;10.32;;;2.00;99.90;;;;;;5155426;27;20109;-78
2022/03/06 01:36:43;;;;;;;13.82;9.95;;;1.90;99.90;;;;;;5120190;27;20379;-79
2022/03/06 01:39:09;;;;;;;11.77;9.98;;;1.90;99.90;;;;;;5155408;27;20039;-79
2022/03/06 01:41:35;;;;;;;13.82;9.93;;;1.90;99.90;;;;;;5154865;27;20038;-79
2022/03/06 01:44:02;;;;;;;12.65;10.15;;;1.90;99.90;;;;;;5119855;27;20486;-81
2022/03/06 01:46:27;;;;;;;11.98;10.20;;;2.00;99.90;;;;;;5154888;27;20046;-79
2022/03/06 01:48:53;;;;;;;13.32;9.80;;;1.90;99.90;;;;;;5154938;27;20045;-79
2022/03/06 01:51:19;;;;;;;12.52;10.23;;;2.00;99.90;;;;;;5119589;27;20042;-78
2022/03/06 01:53:44;;;;;;;11.70;10.30;;;2.00;99.90;;;;;;5154662;27;20114;-79
2022/03/06 01:56:12;;;;;;;15.82;10.45;;;2.00;99.90;;;;;;5155045;27;20047;-79
2022/03/06 01:58:38;;;;;;;12.70;9.95;;;2.00;99.90;;;;;;5154685;27;20046;-78
2022/03/06 02:01:04;;;;;;;13.93;9.73;;;2.00;99.90;;;;;;5119580;27;20043;-80
2022/03/06 02:03:29;;;;;;;12.48;10.40;;;2.00;99.90;;;;;;5154622;27;20039;-79
2022/03/06 02:05:55;;;;;;;13.93;10.00;;;2.00;99.90;;;;;;5136611;27;20486;-78
2022/03/06 02:08:20;;;;;;;12.30;9.63;;;2.00;99.90;;;;;;5154872;27;20049;-78
2022/03/06 02:10:50;;;;;;;11.32;10.13;;;2.00;99.90;;;;;;5136047;27;20045;-79
2022/03/06 02:13:16;;;;;;;15.07;10.60;;;2.00;99.90;;;;;;5137020;27;20042;-79
2022/03/06 02:15:43;;;;;;;13.27;9.75;;;2.00;99.90;;;;;;5136078;27;20359;-79
2022/03/06 02:18:08;;;;;;;12.25;10.02;;;2.10;99.90;;;;;;5102833;27;20055;-78
2022/03/06 02:20:36;;;;;;;13.32;10.70;;;2.00;99.90;;;;;;5154434;27;20031;-80
2022/03/06 02:23:02;;;;;;;14.07;9.85;;;2.00;99.90;;;;;;5154401;27;20490;-80
2022/03/06 02:25:34;;;;;;;14.43;9.82;;;2.00;99.90;;;;;;5135915;27;20130;-79
2022/03/06 02:28:01;;;;;;;12.23;9.55;;;2.00;99.90;;;;;;5136436;27;20038;-79
2022/03/06 02:30:29;;;;;;;12.32;10.18;;;2.00;99.90;;;;;;5135790;27;20070;-80
2022/03/06 02:32:55;;;;;;;15.05;9.93;;;2.00;99.90;;;;;;5132455;27;20095;-79
2022/03/06 02:35:21;;;;;;;13.05;10.32;;;1.90;99.90;;;;;;5133824;27;20142;-79
2022/03/06 02:37:47;;;;;;;13.98;9.80;;;2.00;99.90;;;;;;5115202;28;20112;-79
2022/03/06 02:40:13;;;;;;;13.82;9.85;;;2.00;99.90;;;;;;5134059;28;20052;-78
2022/03/06 02:42:40;;;;;;;13.32;9.85;;;2.00;99.90;;;;;;5132455;27;20089;-76
2022/03/06 02:45:09;;;;;;;17.05;9.73;;;2.00;99.90;;;;;;5134795;28;20050;-76
2022/03/06 02:47:35;;;;;;;12.52;8.98;;;2.00;99.90;;;;;;5116831;28;20043;-77
2022/03/06 02:50:02;;;;;;;11.23;9.48;;;1.90;99.90;;;;;;5133572;28;20432;-80
2022/03/06 02:52:28;;;;;;;10.95;8.90;;;2.00;99.90;;;;;;5115527;28;20047;-79
2022/03/06 02:54:54;;;;;;;12.88;9.02;;;2.00;99.90;;;;;;5131527;28;20488;-79
2022/03/06 02:57:19;;;;;;;13.02;9.50;;;1.90;99.90;;;;;;5115363;28;20050;-79
2022/03/06 02:59:45;;;;;;;11.55;8.65;;;1.90;99.90;;;;;;5133187;28;20039;-78
2022/03/06 03:02:11;;;;;;;12.50;9.27;;;1.90;99.90;;;;;;5133621;28;20394;-80
2022/03/06 03:04:37;;;;;;;9.40;7.80;;;1.90;99.90;;;;;;5133098;28;20047;-79
2022/03/06 03:07:03;;;;;;;10.43;7.78;;;1.90;99.90;;;;;;5133615;27;20451;-79
2022/03/06 03:09:29;;;;;;;11.38;7.75;;;1.90;99.90;;;;;;5132281;28;20150;-80
2022/03/06 03:11:55;;;;;;;11.00;7.85;;;1.90;99.90;;;;;;5133169;27;20046;-78
2022/03/06 03:14:21;;;;;;;11.85;8.40;;;1.80;99.90;;;;;;5132319;28;20047;-80
2022/03/06 03:16:46;;;;;;;10.32;7.82;;;1.80;99.90;;;;;;5115071;28;20066;-79
2022/03/06 03:19:12;;;;;;;9.23;6.88;;;1.80;99.90;;;;;;5133463;27;20036;-80
2022/03/06 03:21:38;;;;;;;9.13;6.93;;;1.70;99.90;;;;;;5114953;28;20051;-80
2022/03/06 03:24:04;;;;;;;9.50;7.03;;;1.80;99.90;;;;;;5132236;28;20445;-79
2022/03/06 03:26:30;;;;;;;9.77;6.80;;;1.70;99.90;;;;;;5133377;27;20047;-79
2022/03/06 03:28:55;;;;;;;11.10;6.88;;;1.70;99.90;;;;;;5132960;28;20560;-78
2022/03/06 03:31:21;;;;;;;9.98;6.53;;;1.60;99.90;;;;;;5133251;28;20039;-79
2022/03/06 03:33:47;;;;;;;8.70;6.70;;;1.60;99.90;;;;;;5131410;28;20051;-79
2022/03/06 03:36:13;;;;;;;9.70;6.32;;;1.60;99.90;;;;;;5115267;28;20062;-80
2022/03/06 03:38:40;;;;;;;7.43;5.88;;;1.60;99.90;;;;;;5131703;28;20088;-79
2022/03/06 03:41:06;;;;;;;8.75;6.15;;;1.50;99.90;;;;;;5132059;28;20047;-77
2022/03/06 03:43:37;;;;;;;7.53;5.82;;;1.50;99.90;;;;;;5132988;27;20110;-79
2022/03/06 03:46:05;;;;;;;10.38;6.55;;;1.50;99.90;;;;;;5131992;28;20047;-79
2022/03/06 03:48:31;;;;;;;7.68;5.97;;;1.40;99.90;;;;;;5133215;27;20127;-79
2022/03/06 03:50:57;;;;;;;7.95;5.50;;;1.40;99.90;;;;;;5132573;27;20097;-78
2022/03/06 03:53:23;;;;;;;9.38;5.63;;;1.40;99.90;;;;;;5132094;27;20035;-79
2022/03/06 03:55:49;;;;;;;9.35;5.60;;;1.40;99.90;;;;;;5101132;27;20051;-79
2022/03/06 03:58:15;;;;;;;8.35;6.32;;;1.30;99.90;;;;;;5135605;27;20387;-79
2022/03/06 04:00:42;;;;;;;7.68;5.63;;;1.30;99.90;;;;;;5135020;27;20037;-79
2022/03/06 04:03:07;;;;;;;8.35;5.35;;;1.30;99.90;;;;;;5136707;27;20130;-79
2022/03/06 04:05:33;;;;;;;7.32;5.63;;;1.30;99.90;;;;;;5135566;27;20137;-79
2022/03/06 04:07:59;;;;;;;6.97;5.30;;;1.30;99.90;;;;;;5137761;27;20047;-75
2022/03/06 04:10:24;;;;;;;7.50;5.43;;;1.30;99.90;;;;;;5138629;27;20035;-75
2022/03/06 04:12:50;;;;;;;8.05;5.40;;;1.20;99.90;;;;;;5139950;27;20050;-76
2022/03/06 04:15:16;;;;;;;10.02;5.75;;;1.30;99.90;;;;;;5118630;27;20035;-78
2022/03/06 04:17:41;;;;;;;9.60;4.95;;;1.30;99.90;;;;;;5136097;27;20490;-83
2022/03/06 04:20:07;;;;;;;7.90;5.90;;;1.30;99.90;;;;;;5136408;27;20035;-79
2022/03/06 04:22:33;;;;;;;6.82;5.10;;;1.30;99.90;;;;;;5136404;27;20390;-79
2022/03/06 04:24:59;;;;;;;9.38;6.10;;;1.30;99.90;;;;;;5134620;27;20042;-78
2022/03/06 04:27:24;;;;;;;8.90;5.65;;;1.30;99.90;;;;;;5135070;27;20395;-79
2022/03/06 04:29:50;;;;;;;7.05;5.50;;;1.20;99.90;;;;;;5117587;27;20427;-78
2022/03/06 04:32:16;;;;;;;7.88;5.25;;;1.30;99.90;;;;;;5134521;27;20161;-78
2022/03/06 04:34:41;;;;;;;7.72;5.38;;;1.30;99.90;;;;;;5134769;27;20391;-79
2022/03/06 04:37:07;;;;;;;7.07;5.38;;;1.20;99.90;;;;;;5135617;27;20130;-78
2022/03/06 04:39:33;;;;;;;10.35;5.47;;;1.30;99.90;;;;;;5100761;27;20134;-79
2022/03/06 04:41:58;;;;;;;7.88;5.43;;;1.20;99.90;;;;;;5134361;27;20046;-79
2022/03/06 04:44:24;;;;;;;9.02;5.60;;;1.20;99.90;;;;;;5134581;27;20054;-80
2022/03/06 04:46:50;;;;;;;9.25;5.20;;;1.10;99.90;;;;;;5135454;27;20043;-80
2022/03/06 04:49:15;;;;;;;7.75;5.05;;;1.10;99.90;;;;;;5117486;27;20131;-79
2022/03/06 04:51:41;;;;;;;8.25;5.43;;;1.10;99.90;;;;;;5134439;27;20108;-79
2022/03/06 04:54:07;;;;;;;8.60;5.43;;;1.10;99.90;;;;;;5135149;27;20062;-79
2022/03/06 04:56:33;;;;;;;8.27;5.45;;;1.10;99.90;;;;;;5135556;27;20039;-79
2022/03/06 04:58:59;;;;;;;8.68;5.25;;;1.00;99.90;;;;;;5135159;27;20051;-79
2022/03/06 05:01:25;;;;;;;8.30;5.13;;;1.00;99.90;;;;;;5135503;27;20046;-79
2022/03/06 05:03:50;;;;;;;7.18;5.32;;;1.10;99.90;;;;;;5135114;27;20039;-78
2022/03/06 05:06:16;;;;;;;11.07;5.10;;;1.00;99.90;;;;;;5117023;27;20090;-79
2022/03/06 05:08:41;;;;;;;7.20;4.88;;;1.00;99.90;;;;;;5134289;27;20180;-78
2022/03/06 05:11:07;;;;;;;7.68;5.45;;;0.90;99.90;;;;;;5133529;27;20118;-78
2022/03/06 05:13:33;;;;;;;11.35;6.10;;;0.90;99.90;;;;;;5135516;27;20046;-79
2022/03/06 05:15:58;;;;;;;9.82;5.30;;;0.90;99.90;;;;;;5133556;27;20087;-79
2022/03/06 05:18:24;;;;;;;8.18;5.57;;;0.90;99.90;;;;;;5133921;27;20050;-79
2022/03/06 05:20:50;;;;;;;6.18;5.10;;;0.90;99.90;;;;;;5134932;27;20043;-81
2022/03/06 05:23:17;;;;;;;7.35;5.05;;;0.80;99.90;;;;;;5135023;27;20047;-79
2022/03/06 05:25:43;;;;;;;6.38;4.65;;;0.80;99.90;;;;;;5133772;27;20085;-79
2022/03/06 05:28:09;;;;;;;9.70;5.03;;;0.70;99.90;;;;;;5134528;27;20126;-78
2022/03/06 05:30:35;;;;;;;7.40;5.18;;;0.80;99.90;;;;;;5133632;27;20051;-79
2022/03/06 05:33:01;;;;;;;9.63;4.82;;;0.70;99.90;;;;;;5134085;27;20059;-75
2022/03/06 05:35:26;;;;;;;6.82;5.35;;;0.60;99.90;;;;;;5138059;27;20095;-75
2022/03/06 05:37:52;;;;;;;8.00;4.78;;;0.50;99.90;;;;;;5136745;27;20051;-79
2022/03/06 05:40:18;;;;;;;12.82;4.93;;;0.50;99.90;;;;;;5137616;27;20064;-76
2022/03/06 05:42:44;;;;;;;8.60;4.97;;;0.50;99.90;;;;;;5134677;27;20129;-78
2022/03/06 05:45:09;;;;;;;9.30;5.38;;;0.40;99.90;;;;;;5134238;27;20043;-79
2022/03/06 05:47:35;;;;;;;9.25;4.97;;;0.40;99.90;;;;;;5116145;27;20047;-79
2022/03/06 05:50:02;;;;;;;10.38;5.50;;;0.40;99.90;;;;;;5134002;27;20043;-78
2022/03/06 05:52:27;;;;;;;8.80;5.50;;;0.30;99.90;;;;;;5134529;27;20042;-78
2022/03/06 05:54:53;;;;;;;9.32;5.13;;;0.30;99.90;;;;;;5133284;27;20458;-78
2022/03/06 05:57:18;;;;;;;8.38;4.95;;;0.30;99.90;;;;;;5133893;27;20039;-79
2022/03/06 05:59:44;;;;;;;7.22;5.05;;;0.30;99.90;;;;;;5116110;27;20046;-78
2022/03/06 06:02:10;;;;;;;7.43;5.10;;;0.30;99.90;;;;;;5132549;27;20130;-78
2022/03/06 06:04:35;;;;;;;5.80;4.38;;;0.30;99.90;;;;;;5133382;27;20065;-78
2022/03/06 06:07:01;;;;;;;6.65;4.93;;;0.30;99.90;;;;;;5133872;27;20081;-78
2022/03/06 06:09:26;;;;;;;7.63;4.60;;;0.30;99.90;;;;;;5133098;27;20047;-79
2022/03/06 06:11:52;;;;;;;8.70;4.82;;;0.20;99.90;;;;;;5132869;27;20039;-78
2022/03/06 06:14:18;;;;;;;8.95;5.05;;;0.20;99.90;;;;;;5133775;27;20058;-78
2022/03/06 06:16:44;;;;;;;7.43;4.97;;;0.30;99.90;;;;;;5133775;27;20407;-78
2022/03/06 06:19:10;;;;;;;9.85;5.20;;;0.30;99.90;;;;;;5133709;27;20098;-79
2022/03/06 06:21:36;;;;;;;8.52;4.93;;;0.10;99.90;;;;;;5134027;27;20050;-79
2022/03/06 06:24:01;;;;;;;8.70;4.88;;;0.10;99.90;;;;;;5115595;27;20043;-80
2022/03/06 06:26:27;;;;;;;6.90;4.78;;;0.10;99.90;;;;;;5133707;27;20045;-78
2022/03/06 06:28:55;;;;;;;7.43;4.88;;;0.10;99.90;;;;;;5133786;27;20047;-78
2022/03/06 06:31:23;;;;;;;9.88;5.25;;;0.10;99.90;;;;;;5133509;27;20134;-78
2022/03/06 06:33:49;;;;;;;7.63;5.10;;;0.10;99.90;;;;;;5151287;27;20069;-78
2022/03/06 06:36:15;;;;;;;9.55;5.22;;;0.10;99.90;;;;;;5154306;27;20043;-78
2022/03/06 06:38:41;;;;;;;7.80;4.43;;;0.10;99.90;;;;;;5154624;27;20042;-78
2022/03/06 06:41:06;;;;;;;6.75;4.68;;;0.20;99.90;;;;;;5154002;27;20043;-77
2022/03/06 06:43:32;;;;;;;6.88;4.35;;;0.20;99.90;;;;;;5136024;27;20046;-78
2022/03/06 06:45:58;;;;;;;8.18;4.80;;;0.20;99.90;;;;;;5136104;27;20038;-78
2022/03/06 06:48:23;;;;;;;8.35;4.47;;;0.20;99.90;;;;;;5154060;27;20382;-78
2022/03/06 06:50:49;;;;;;;8.82;4.75;;;0.20;99.90;;;;;;5154282;27;20383;-77
2022/03/06 06:53:14;;;;;;;7.05;4.30;;;0.30;99.90;;;;;;5154033;27;20046;-78
2022/03/06 06:55:40;;;;;;;10.32;4.60;;;0.40;99.90;;;;;;5154297;27;20049;-78
2022/03/06 06:58:06;;;;;;;9.20;4.85;;;0.40;99.90;;;;;;5135798;27;20039;-78
2022/03/06 07:00:32;;;;;;;7.38;5.13;;;0.50;99.90;;;;;;5154310;27;20088;-78
2022/03/06 07:02:57;;;;;;;7.28;4.72;;;0.50;99.90;;;;;;5154271;27;20046;-78
2022/03/06 07:05:23;;;;;;;7.65;4.60;;;0.50;99.90;;;;;;5153937;27;20424;-78
2022/03/06 07:07:49;;;;;;;6.43;4.43;;;0.60;99.90;;;;;;5135590;27;20406;-78
2022/03/06 07:10:14;;;;;;;4.88;4.10;;;0.60;99.90;;;;;;5118574;27;20043;-77
2022/03/06 07:12:42;;;;;;;6.95;4.45;;;0.60;99.90;;;;;;5154220;27;20117;-78
2022/03/06 07:15:08;;;;;;;6.75;4.25;;;0.60;99.90;;;;;;5154124;27;20050;-77
2022/03/06 07:17:34;;;;;;;6.63;4.22;;;0.60;99.90;;;;;;5120589;27;20042;-75
2022/03/06 07:19:59;;;;;;;7.18;4.45;;;0.70;99.90;;;;;;5121830;27;20043;-75
2022/03/06 07:22:25;;;;;;;5.85;4.18;;;0.60;99.90;;;;;;5121263;27;20043;-75
2022/03/06 07:24:51;;;;;;;7.82;4.43;;;0.70;99.90;;;;;;5156557;27;20393;-75
2022/03/06 07:27:16;;;;;;;7.65;4.03;;;0.60;99.90;;;;;;5155725;27;20046;-75
2022/03/06 07:29:42;;;;;;;7.13;4.65;;;0.70;99.90;;;;;;5157481;27;20046;-76
2022/03/06 07:32:08;;;;;;;5.53;3.92;;;0.70;99.90;;;;;;5157555;27;20409;-77
2022/03/06 07:34:33;;;;;;;6.03;3.78;;;0.70;99.90;;;;;;5139898;27;20073;-79
2022/03/06 07:36:59;;;;;;;6.78;4.18;;;0.80;99.90;;;;;;5158115;27;20046;-77
2022/03/06 07:39:25;;;;;;;6.82;4.10;;;0.80;99.90;;;;;;5121820;27;20070;-79
2022/03/06 07:41:50;;;;;;;4.63;4.00;;;0.80;99.90;;;;;;5157707;27;20038;-78
2022/03/06 07:44:16;;;;;;;5.28;3.92;;;0.90;99.90;;;;;;5157396;27;20428;-79
2022/03/06 07:46:42;;;;;;;5.22;3.40;;;0.90;99.90;;;;;;5157555;27;20099;-78
2022/03/06 07:49:08;;;;;;;5.20;3.95;;;0.90;99.90;;;;;;5157685;27;20047;-77
2022/03/06 07:51:33;;;;;;;5.43;3.90;;;1.00;99.90;;;;;;5138668;27;20122;-78
2022/03/06 07:53:59;;;;;;;6.45;3.78;;;1.00;99.90;;;;;;5157588;27;20486;-77
2022/03/06 07:56:24;;;;;;;7.38;3.60;;;1.00;99.90;;;;;;5157256;27;20045;-79
2022/03/06 07:58:50;;;;;;;5.25;3.47;;;1.10;99.90;;;;;;5139202;27;20039;-78
2022/03/06 08:01:16;;;;;;;4.85;3.53;;;1.10;99.90;;;;;;5157151;27;20042;-79
2022/03/06 08:03:41;;;;;;;4.15;3.33;;;1.20;99.90;;;;;;5157494;27;20386;-78
2022/03/06 08:06:07;;;;;;;5.30;3.20;;;1.20;99.90;;;;;;5139256;27;20129;-77
2022/03/06 08:08:33;;;;;;;3.97;3.53;;;1.30;99.90;;;;;;5157053;27;20057;-78
2022/03/06 08:10:58;;;;;;;5.30;2.95;;;1.30;99.90;;;;;;5157463;27;20043;-78
2022/03/06 08:13:24;;;;;;;6.55;3.60;;;1.40;99.90;;;;;;5157904;27;20058;-78
2022/03/06 08:15:49;;;;;;;3.42;3.13;;;1.40;99.90;;;;;;5139023;27;20046;-77
2022/03/06 08:18:15;;;;;;;4.50;3.03;;;1.50;99.90;;;;;;5157742;27;20042;-77
2022/03/06 08:20:41;;;;;;;8.57;2.78;;;1.50;99.90;;;;;;5156919;27;20041;-76
2022/03/06 08:23:06;;;;;;;5.53;3.00;;;1.50;99.90;;;;;;5157178;27;20042;-77
2022/03/06 08:25:32;;;;;;;6.88;3.58;;;1.60;99.90;;;;;;5138488;27;20383;-77
2022/03/06 08:27:58;;;;;;;6.10;3.70;;;1.60;99.90;;;;;;5156990;27;20130;-77
2022/03/06 08:30:23;;;;;;;4.82;3.08;;;1.70;99.90;;;;;;5138028;27;20486;-81
2022/03/06 08:32:49;;;;;;;4.38;2.75;;;1.70;99.90;;;;;;5159059;27;20059;-81
2022/03/06 08:35:15;;;;;;;5.78;3.10;;;1.80;99.90;;;;;;5139086;27;20051;-78
2022/03/06 08:37:40;;;;;;;3.60;2.88;;;1.80;99.90;;;;;;5138167;27;20505;-79
2022/03/06 08:40:08;;;;;;;4.63;2.67;;;1.90;99.90;;;;;;5156417;27;20505;-80
2022/03/06 08:42:34;;;;;;;6.75;2.65;;;1.90;99.90;;;;;;5138044;27;20114;-79
2022/03/06 08:45:00;;;;;;;4.28;2.88;;;1.90;99.90;;;;;;5138657;27;20050;-78
2022/03/06 08:47:25;;;;;;;4.75;2.65;;;2.10;99.90;;;;;;5156155;27;20133;-79
2022/03/06 08:49:51;;;;;;;4.43;2.63;;;2.00;99.90;;;;;;5138533;27;20050;-82
2022/03/06 08:52:17;;;;;;;4.63;2.70;;;2.10;99.90;;;;;;5138193;27;20047;-82
2022/03/06 08:54:42;;;;;;;5.72;2.53;;;2.10;99.90;;;;;;5121230;27;20039;-79
2022/03/06 08:57:08;;;;;;;2.88;2.58;;;2.20;99.90;;;;;;5137869;27;20043;-79
2022/03/06 08:59:33;;;;;;;3.58;2.53;;;2.20;99.90;;;;;;5137577;27;20531;-79
2022/03/06 09:01:59;;;;;;;4.93;2.42;;;2.20;99.90;;;;;;5138253;27;20587;-80
2022/03/06 09:04:25;;;;;;;4.28;2.47;;;2.20;99.90;;;;;;5137333;27;20054;-80
2022/03/06 09:06:51;;;;;;;4.18;2.25;;;2.30;99.90;;;;;;5137692;27;20074;-80
2022/03/06 09:09:17;;;;;;;4.22;2.25;;;2.30;99.90;;;;;;5120747;27;20050;-80
2022/03/06 09:11:42;;;;;;;5.80;2.38;;;2.40;99.90;;;;;;5155761;27;20095;-81
2022/03/06 09:14:08;;;;;;;3.80;2.55;;;2.40;99.90;;;;;;5120884;27;20403;-80
2022/03/06 09:16:34;;;;;;;3.33;2.13;;;2.50;99.90;;;;;;5120315;27;20039;-81
2022/03/06 09:19:01;;;;;;;4.72;2.25;;;2.50;99.90;;;;;;5156413;27;20486;-79
2022/03/06 09:21:27;;;;;;;3.40;2.42;;;2.60;99.90;;;;;;5155937;27;20047;-81
2022/03/06 09:23:53;;;;;;;2.95;2.13;;;2.60;99.90;;;;;;5149918;27;20053;-75
2022/03/06 09:26:19;;;;;;;4.63;2.22;;;2.70;99.90;;;;;;5141766;27;20094;-78
2022/03/06 09:28:44;;;;;;;3.83;2.10;;;2.60;99.90;;;;;;5152428;27;20066;-77
2022/03/06 09:31:10;;;;;;;4.60;2.50;;;2.70;99.90;;;;;;5147176;27;20043;-79
2022/03/06 09:33:35;;;;;;;7.65;2.45;;;2.80;99.90;;;;;;5155472;27;20494;-79
2022/03/06 09:36:01;;;;;;;4.25;2.33;;;2.90;99.80;;;;;;5137562;27;20035;-81
2022/03/06 09:38:27;;;;;;;4.05;2.60;;;2.80;99.10;;;;;;5155045;27;20073;-81
2022/03/06 09:40:53;;;;;;;5.05;2.47;;;2.90;99.30;;;;;;5137060;27;20042;-80
2022/03/06 09:43:19;;;;;;;4.55;2.47;;;2.90;98.80;;;;;;5120041;27;20479;-80
2022/03/06 09:45:45;;;;;;;4.63;2.45;;;3.00;99.10;;;;;;5136497;27;20126;-79
2022/03/06 09:48:12;;;;;;;3.47;2.38;;;3.00;99.10;;;;;;5155473;27;20121;-80
2022/03/06 09:50:37;;;;;;;3.45;2.45;;;3.10;99.00;;;;;;5136476;27;20038;-81
2022/03/06 09:53:03;;;;;;;3.33;2.30;;;3.20;98.30;;;;;;5136274;27;20043;-81
2022/03/06 09:55:29;;;;;;;3.17;2.20;;;3.30;97.80;;;;;;5119729;27;20129;-82
2022/03/06 09:57:56;;;;;;;5.57;2.63;;;3.20;96.80;;;;;;5136543;27;20450;-80
2022/03/06 10:00:22;;;;;;;4.38;2.30;;;3.20;97.30;;;;;;5103120;27;20042;-80
2022/03/06 10:02:58;;;;;;;8.13;2.83;;;3.30;97.40;;;;;;5136298;27;20050;-81
2022/03/06 10:05:30;;;;;;;4.80;2.50;;;3.30;96.50;;;;;;5136691;27;20058;-81
2022/03/06 10:08:14;;;;;;;4.57;2.65;;;3.40;96.10;;;;;;5155079;27;20039;-80
2022/03/06 10:10:40;;;;;;;4.70;2.85;;;3.40;95.60;;;;;;5154166;27;20499;-81
2022/03/06 10:13:22;;;;;;;8.15;3.22;;;3.40;96.80;;;;;;5154955;27;20049;-80
2022/03/06 10:16:08;;;;;;;4.15;2.75;;;3.50;96.60;;;;;;5154615;27;20050;-81
2022/03/06 10:18:41;;;;;;;6.57;2.63;;;3.50;96.30;;;;;;5136098;27;20045;-81
2022/03/06 10:21:14;;;;;;;6.43;2.92;;;3.50;96.90;;;;;;5137421;27;20047;-80
2022/03/06 10:23:40;;;;;;;4.85;2.50;;;3.50;97.10;;;;;;5136007;27;20077;-80
2022/03/06 10:26:09;;;;;;;5.13;2.78;;;3.50;95.50;;;;;;5136289;27;20447;-80
2022/03/06 10:28:48;;;;;;;5.70;2.70;;;3.60;96.40;;;;;;5119091;27;20051;-81
2022/03/06 10:31:14;;;;;;;4.43;2.63;;;3.60;95.40;;;;;;5136370;27;20042;-81
2022/03/06 10:33:40;;;;;;;4.93;2.83;;;3.70;96.00;;;;;;5135575;27;20053;-80
2022/03/06 10:36:09;;;;;;;3.22;2.90;;;3.70;96.10;;;;;;5136350;27;20497;-81
2022/03/06 10:38:35;;;;;;;3.58;2.60;;;3.70;96.30;;;;;;5154282;27;20038;-81
2022/03/06 10:41:03;;;;;;;4.82;2.78;;;3.70;96.30;;;;;;5136177;27;20051;-80
2022/03/06 10:43:31;;;;;;;3.58;2.70;;;3.80;96.20;;;;;;5136163;27;20046;-80
2022/03/06 10:46:10;;;;;;;5.15;3.13;;;3.80;95.80;;;;;;5135827;27;20344;-80
2022/03/06 10:48:37;;;;;;;5.43;2.90;;;3.90;95.40;;;;;;5153892;27;20046;-82
2022/03/06 10:51:04;;;;;;;4.68;2.85;;;3.90;94.60;;;;;;5136340;27;20039;-81
2022/03/06 10:53:30;;;;;;;4.88;2.90;;;4.00;94.70;;;;;;5154566;27;20054;-80
2022/03/06 10:56:05;;;;;;;5.43;3.00;;;4.00;95.20;;;;;;5154019;27;20441;-79
2022/03/06 10:58:31;;;;;;;4.93;2.92;;;4.10;95.50;;;;;;5137555;27;20050;-81
2022/03/06 11:00:57;;;;;;;4.05;2.60;;;4.10;95.50;;;;;;5135596;27;20394;-81
2022/03/06 11:03:22;;;;;;;6.30;3.20;;;4.10;95.50;;;;;;5103908;27;20493;-81
2022/03/06 11:05:49;;;;;;;6.22;2.80;;;4.20;95.30;;;;;;5139793;27;20129;-81
2022/03/06 11:08:15;;;;;;;4.80;3.15;;;4.20;95.30;;;;;;5159115;27;20047;-80
2022/03/06 11:10:42;;;;;;;4.63;2.88;;;4.30;95.50;;;;;;5123495;27;20047;-80
2022/03/06 11:13:08;;;;;;;4.03;2.67;;;4.40;94.90;;;;;;5168555;27;20062;-77
2022/03/06 11:15:34;;;;;;;6.47;3.05;;;4.40;94.80;;;;;;5116846;27;20042;-77
2022/03/06 11:18:01;;;;;;;4.35;2.97;;;4.40;94.40;;;;;;5150062;27;20070;-77
2022/03/06 11:20:28;;;;;;;4.07;3.10;;;4.50;94.10;;;;;;5169753;27;20053;-77
2022/03/06 11:23:18;;;;;;;5.43;2.90;;;4.60;93.70;;;;;;5124897;27;20050;-80
2022/03/06 11:26:10;;;;;;;5.25;2.80;;;4.80;94.10;;;;;;5139543;27;20050;-82
2022/03/06 11:28:36;;;;;;;4.32;2.80;;;4.80;93.80;;;;;;5122844;27;20364;-81
2022/03/06 11:31:02;;;;;;;4.72;2.72;;;4.90;93.90;;;;;;5157656;27;20094;-81
2022/03/06 11:33:27;;;;;;;5.53;2.80;;;4.90;93.70;;;;;;5139307;27;20161;-80
2022/03/06 11:35:53;;;;;;;4.28;3.00;;;5.10;93.10;;;;;;5157696;27;20046;-81
2022/03/06 11:38:20;;;;;;;5.25;3.15;;;5.20;93.80;;;;;;5139449;27;20610;-81
2022/03/06 11:40:53;;;;;;;4.07;3.00;;;5.30;93.30;;;;;;5122138;27;20043;-82
2022/03/06 11:43:41;;;;;;;5.63;3.10;;;5.40;92.80;;;;;;5122288;27;20486;-80
2022/03/06 11:46:18;;;;;;;3.65;2.67;;;5.70;92.40;;;;;;5157558;27;20043;-81
2022/03/06 11:48:44;;;;;;;3.63;2.90;;;5.60;92.70;;;;;;5157407;27;20042;-82
2022/03/06 11:51:24;;;;;;;5.30;2.80;;;5.60;92.20;;;;;;5157590;27;20530;-81
2022/03/06 11:53:58;;;;;;;5.85;4.00;;;5.70;92.80;;;;;;5157365;27;20081;-81
2022/03/06 11:58:59;;;;;;;5.43;3.03;;;5.80;92.60;;;;;;5157089;27;20046;-79
2022/03/06 12:01:26;;;;;;;4.60;2.92;;;5.80;92.20;;;;;;5139088;27;20090;-80
2022/03/06 12:03:54;;;;;;;4.75;3.08;;;5.80;91.80;;;;;;5138752;27;20045;-80
2022/03/06 12:06:19;;;;;;;6.20;2.80;;;5.80;91.90;;;;;;5121994;27;20038;-79
2022/03/06 12:08:46;;;;;;;6.55;2.95;;;5.80;92.40;;;;;;5138941;27;20043;-81
2022/03/06 12:11:12;;;;;;;3.30;2.53;;;5.90;92.10;;;;;;5104961;27;20049;-80
2022/03/06 12:13:39;;;;;;;5.68;2.88;;;5.90;91.70;;;;;;5121881;27;20107;-79
2022/03/06 12:16:08;;;;;;;3.38;2.85;;;6.00;91.40;;;;;;5137511;27;20050;-80
2022/03/06 12:18:34;;;;;;;3.17;2.65;;;6.00;91.10;;;;;;5138947;27;20089;-80
2022/03/06 12:20:59;;;;;;;5.85;3.10;;;6.00;91.50;;;;;;5156644;27;20117;-81
2022/03/06 12:23:30;;;;;;;3.95;2.58;;;6.10;91.70;;;;;;5138612;27;20130;-79
2022/03/06 12:25:57;;;;;;;4.85;3.13;;;6.20;91.90;;;;;;5138815;27;20126;-79
2022/03/06 12:28:27;;;;;;;5.82;2.92;;;6.20;91.80;;;;;;5156482;27;20051;-79
2022/03/06 12:30:53;;;;;;;4.93;3.07;;;6.20;91.90;;;;;;5156472;27;20402;-79
2022/03/06 12:33:33;;;;;;;6.20;3.10;;;6.20;92.10;;;;;;5156759;27;20487;-78
2022/03/06 12:36:11;;;;;;;5.65;2.83;;;6.30;91.00;;;;;;5139159;27;20133;-78
2022/03/06 12:38:37;;;;;;;3.25;2.65;;;6.30;91.10;;;;;;5156767;27;20399;-78
2022/03/06 12:41:03;;;;;;;7.20;3.00;;;6.30;91.80;;;;;;5121056;27;20034;-80
2022/03/06 12:43:30;;;;;;;4.70;2.65;;;6.40;92.10;;;;;;5156619;27;20043;-81
2022/03/06 12:45:56;;;;;;;3.45;2.47;;;6.50;91.00;;;;;;5137855;27;20047;-79
2022/03/06 12:48:22;;;;;;;3.78;3.10;;;6.40;91.00;;;;;;5138176;27;20046;-80
2022/03/06 12:50:48;;;;;;;5.68;3.08;;;6.40;91.60;;;;;;5156326;27;20047;-81
2022/03/06 12:53:17;;;;;;;5.68;2.75;;;6.40;91.40;;;;;;5137974;27;20102;-82